sensor_id;sensor_type;location;lat;lon;timestamp;temperature;humidity
25688;DHT22;17407;51.120;3.702;2023-05-19T10:24:33;21.30;99.90
25688;DHT22;17407;51.120;3.702;2023-05-19T10:27:09;21.30;99.90
25688;DHT22;17407;51.120;3.702;2023-05-19T10:29:41;21.60;99.90
25688;DHT22;17407;51.120;3.702;2023-05-19T10:32:10;21.80;99.90
25688;DHT22;17407;51.120;3.702;2023-05-19T10:35:53;22.10;99.90
25688;DHT22;17407;51.120;3.702;2023-05-19T10:40:25;22.50;99.90
25688;DHT22;17407;51.120;3.702;2023-05-19T10:43:11;22.70;99.90
25688;DHT22;17407;51.120;3.702;2023-05-19T10:45:50;22.90;99.90
25688;DHT22;17407;51.120;3.702;2023-05-19T10:48:16;23.00;99.90
25688;DHT22;17407;51.120;3.702;2023-05-19T10:50:44;23.10;99.90
25688;DHT22;17407;51.120;3.702;2023-05-19T10:53:17;23.10;99.90
25688;DHT22;17407;51.120;3.702;2023-05-19T10:55:50;23.30;99.90
25688;DHT22;17407;51.120;3.702;2023-05-19T11:01:12;23.20;99.90
25688;DHT22;17407;51.120;3.702;2023-05-19T11:03:51;23.10;98.00
25688;DHT22;17407;51.120;3.702;2023-05-19T11:09:10;23.20;98.10
25688;DHT22;17407;51.120;3.702;2023-05-19T11:11:51;23.20;96.70
25688;DHT22;17407;51.120;3.702;2023-05-19T11:14:21;23.30;98.10
25688;DHT22;17407;51.120;3.702;2023-05-19T11:16:49;23.50;98.20
25688;DHT22;17407;51.120;3.702;2023-05-19T11:19:19;23.60;99.00
25688;DHT22;17407;51.120;3.702;2023-05-19T11:21:50;23.70;96.00
25688;DHT22;17407;51.120;3.702;2023-05-19T11:27:24;23.80;91.00
25688;DHT22;17407;51.120;3.702;2023-05-19T11:29:51;24.00;91.80
25688;DHT22;17407;51.120;3.702;2023-05-19T11:32:18;24.20;91.10
25688;DHT22;17407;51.120;3.702;2023-05-19T11:34:44;24.20;90.60
25688;DHT22;17407;51.120;3.702;2023-05-19T11:37:10;24.30;93.10
25688;DHT22;17407;51.120;3.702;2023-05-19T11:39:36;24.40;88.80
25688;DHT22;17407;51.120;3.702;2023-05-19T11:42:03;24.40;90.10
25688;DHT22;17407;51.120;3.702;2023-05-19T11:44:29;24.40;87.60
25688;DHT22;17407;51.120;3.702;2023-05-19T11:46:57;24.40;85.00
25688;DHT22;17407;51.120;3.702;2023-05-19T11:49:22;24.40;86.20
25688;DHT22;17407;51.120;3.702;2023-05-19T11:51:48;24.40;83.30
25688;DHT22;17407;51.120;3.702;2023-05-19T11:54:14;24.40;87.40
25688;DHT22;17407;51.120;3.702;2023-05-19T11:56:41;24.40;85.20
25688;DHT22;17407;51.120;3.702;2023-05-19T11:59:07;24.40;86.00
25688;DHT22;17407;51.120;3.702;2023-05-19T12:01:33;24.30;86.00
25688;DHT22;17407;51.120;3.702;2023-05-19T12:04:00;24.20;86.10
25688;DHT22;17407;51.120;3.702;2023-05-19T12:06:26;24.40;86.30
25688;DHT22;17407;51.120;3.702;2023-05-19T12:08:55;24.50;88.80
25688;DHT22;17407;51.120;3.702;2023-05-19T12:11:22;24.60;84.40
25688;DHT22;17407;51.120;3.702;2023-05-19T12:13:48;24.50;84.60
25688;DHT22;17407;51.120;3.702;2023-05-19T12:16:18;24.70;86.30
25688;DHT22;17407;51.120;3.702;2023-05-19T12:18:44;24.80;86.30
25688;DHT22;17407;51.120;3.702;2023-05-19T12:21:10;24.80;86.80
25688;DHT22;17407;51.120;3.702;2023-05-19T12:23:37;24.80;85.40
25688;DHT22;17407;51.120;3.702;2023-05-19T12:26:03;24.80;86.20
25688;DHT22;17407;51.120;3.702;2023-05-19T12:28:29;24.80;84.60
25688;DHT22;17407;51.120;3.702;2023-05-19T12:30:55;24.80;86.90
25688;DHT22;17407;51.120;3.702;2023-05-19T12:33:23;24.70;84.60
25688;DHT22;17407;51.120;3.702;2023-05-19T12:35:49;24.70;84.60
25688;DHT22;17407;51.120;3.702;2023-05-19T12:38:15;24.60;79.60
25688;DHT22;17407;51.120;3.702;2023-05-19T12:40:41;24.60;85.10
25688;DHT22;17407;51.120;3.702;2023-05-19T12:43:07;24.70;84.60
25688;DHT22;17407;51.120;3.702;2023-05-19T12:45:42;24.70;83.10
25688;DHT22;17407;51.120;3.702;2023-05-19T12:48:11;24.80;81.40
25688;DHT22;17407;51.120;3.702;2023-05-19T12:50:38;24.80;84.70
25688;DHT22;17407;51.120;3.702;2023-05-19T12:53:10;25.00;83.40
25688;DHT22;17407;51.120;3.702;2023-05-19T12:55:41;25.00;81.10
25688;DHT22;17407;51.120;3.702;2023-05-19T12:58:07;24.90;79.70
25688;DHT22;17407;51.120;3.702;2023-05-19T13:00:43;24.90;80.40
25688;DHT22;17407;51.120;3.702;2023-05-19T13:03:19;24.70;79.10
25688;DHT22;17407;51.120;3.702;2023-05-19T13:05:46;24.60;81.20
25688;DHT22;17407;51.120;3.702;2023-05-19T13:08:14;24.60;82.60
25688;DHT22;17407;51.120;3.702;2023-05-19T13:10:42;24.60;82.20
25688;DHT22;17407;51.120;3.702;2023-05-19T13:13:09;24.40;83.60
25688;DHT22;17407;51.120;3.702;2023-05-19T13:15:37;24.40;85.00
25688;DHT22;17407;51.120;3.702;2023-05-19T13:18:05;24.40;83.10
25688;DHT22;17407;51.120;3.702;2023-05-19T13:20:32;24.20;82.90
25688;DHT22;17407;51.120;3.702;2023-05-19T13:22:58;24.40;79.70
25688;DHT22;17407;51.120;3.702;2023-05-19T20:06:10;15.50;99.90
25688;DHT22;17407;51.120;3.702;2023-05-19T20:08:36;15.60;99.90
25688;DHT22;17407;51.120;3.702;2023-05-19T20:11:01;15.50;99.90
25688;DHT22;17407;51.120;3.702;2023-05-19T20:13:27;15.30;99.90
25688;DHT22;17407;51.120;3.702;2023-05-19T20:15:53;15.20;99.90
25688;DHT22;17407;51.120;3.702;2023-05-19T20:18:18;15.10;99.90
25688;DHT22;17407;51.120;3.702;2023-05-19T20:20:44;15.10;99.90
25688;DHT22;17407;51.120;3.702;2023-05-19T20:23:10;15.00;99.90
25688;DHT22;17407;51.120;3.702;2023-05-19T20:25:38;15.10;99.90
25688;DHT22;17407;51.120;3.702;2023-05-19T20:28:07;15.00;99.90
25688;DHT22;17407;51.120;3.702;2023-05-19T20:30:33;14.80;99.90
25688;DHT22;17407;51.120;3.702;2023-05-19T20:32:59;14.90;99.90
25688;DHT22;17407;51.120;3.702;2023-05-19T20:35:25;14.70;99.90
25688;DHT22;17407;51.120;3.702;2023-05-19T20:37:50;14.80;99.90
25688;DHT22;17407;51.120;3.702;2023-05-19T20:40:16;14.90;99.90
25688;DHT22;17407;51.120;3.702;2023-05-19T20:42:43;14.70;99.90
25688;DHT22;17407;51.120;3.702;2023-05-19T20:45:08;14.70;99.90
25688;DHT22;17407;51.120;3.702;2023-05-19T20:47:34;14.50;99.90
25688;DHT22;17407;51.120;3.702;2023-05-19T20:50:00;14.50;99.90
25688;DHT22;17407;51.120;3.702;2023-05-19T20:52:25;14.40;99.90
25688;DHT22;17407;51.120;3.702;2023-05-19T20:54:51;14.40;99.90
25688;DHT22;17407;51.120;3.702;2023-05-19T20:57:17;14.40;99.90
25688;DHT22;17407;51.120;3.702;2023-05-19T20:59:43;14.40;99.90
25688;DHT22;17407;51.120;3.702;2023-05-19T21:02:09;14.40;99.90
25688;DHT22;17407;51.120;3.702;2023-05-19T21:04:36;14.30;99.90
25688;DHT22;17407;51.120;3.702;2023-05-19T21:07:02;14.30;99.90
25688;DHT22;17407;51.120;3.702;2023-05-19T21:09:28;14.30;99.90
25688;DHT22;17407;51.120;3.702;2023-05-19T21:11:53;14.30;99.90
25688;DHT22;17407;51.120;3.702;2023-05-19T21:14:20;14.20;99.90
25688;DHT22;17407;51.120;3.702;2023-05-19T21:16:49;14.20;99.90
25688;DHT22;17407;51.120;3.702;2023-05-19T21:19:16;14.10;99.90
25688;DHT22;17407;51.120;3.702;2023-05-19T21:21:41;14.10;99.90
25688;DHT22;17407;51.120;3.702;2023-05-19T21:24:09;14.10;99.90
25688;DHT22;17407;51.120;3.702;2023-05-19T21:26:37;14.00;99.90
25688;DHT22;17407;51.120;3.702;2023-05-19T21:29:03;14.10;99.90
25688;DHT22;17407;51.120;3.702;2023-05-19T21:31:29;14.10;99.90
25688;DHT22;17407;51.120;3.702;2023-05-19T21:33:54;14.00;99.90
25688;DHT22;17407;51.120;3.702;2023-05-19T21:36:20;13.90;99.90
25688;DHT22;17407;51.120;3.702;2023-05-19T21:38:47;13.90;99.90
25688;DHT22;17407;51.120;3.702;2023-05-19T21:41:13;13.80;99.90
25688;DHT22;17407;51.120;3.702;2023-05-19T21:43:39;13.80;99.90
25688;DHT22;17407;51.120;3.702;2023-05-19T21:46:08;13.80;99.90
25688;DHT22;17407;51.120;3.702;2023-05-19T21:48:34;13.70;99.90
25688;DHT22;17407;51.120;3.702;2023-05-19T21:51:00;13.70;99.90
25688;DHT22;17407;51.120;3.702;2023-05-19T21:53:26;13.60;99.90
25688;DHT22;17407;51.120;3.702;2023-05-19T21:55:51;13.70;99.90
25688;DHT22;17407;51.120;3.702;2023-05-19T21:58:17;13.60;99.90
25688;DHT22;17407;51.120;3.702;2023-05-19T22:00:49;13.60;99.90
25688;DHT22;17407;51.120;3.702;2023-05-19T22:03:15;13.50;99.90
25688;DHT22;17407;51.120;3.702;2023-05-19T22:05:42;13.50;99.90
25688;DHT22;17407;51.120;3.702;2023-05-19T22:08:12;13.50;99.90
25688;DHT22;17407;51.120;3.702;2023-05-19T22:10:37;13.50;99.90
25688;DHT22;17407;51.120;3.702;2023-05-19T22:13:03;13.50;99.90
25688;DHT22;17407;51.120;3.702;2023-05-19T22:15:28;13.50;99.90
25688;DHT22;17407;51.120;3.702;2023-05-19T22:17:54;13.50;99.90
25688;DHT22;17407;51.120;3.702;2023-05-19T22:20:20;13.50;99.90
25688;DHT22;17407;51.120;3.702;2023-05-19T22:22:45;13.50;99.90
25688;DHT22;17407;51.120;3.702;2023-05-19T22:25:11;13.40;99.90
25688;DHT22;17407;51.120;3.702;2023-05-19T22:27:37;13.40;99.90
25688;DHT22;17407;51.120;3.702;2023-05-19T22:30:02;13.40;99.90
25688;DHT22;17407;51.120;3.702;2023-05-19T22:32:28;13.40;99.90
25688;DHT22;17407;51.120;3.702;2023-05-19T22:34:54;13.30;99.90
25688;DHT22;17407;51.120;3.702;2023-05-19T22:37:21;13.30;99.90
25688;DHT22;17407;51.120;3.702;2023-05-19T22:39:47;13.30;99.90
25688;DHT22;17407;51.120;3.702;2023-05-19T22:42:13;13.30;99.90
25688;DHT22;17407;51.120;3.702;2023-05-19T22:44:39;13.30;99.90
25688;DHT22;17407;51.120;3.702;2023-05-19T22:47:04;13.30;99.90
25688;DHT22;17407;51.120;3.702;2023-05-19T22:49:30;13.20;99.90
25688;DHT22;17407;51.120;3.702;2023-05-19T22:51:55;13.30;99.90
25688;DHT22;17407;51.120;3.702;2023-05-19T22:54:21;13.30;99.90
25688;DHT22;17407;51.120;3.702;2023-05-19T22:56:47;13.30;99.90
25688;DHT22;17407;51.120;3.702;2023-05-19T22:59:13;13.20;99.90
25688;DHT22;17407;51.120;3.702;2023-05-19T23:01:42;13.20;99.90
25688;DHT22;17407;51.120;3.702;2023-05-19T23:04:07;13.20;99.90
25688;DHT22;17407;51.120;3.702;2023-05-19T23:06:33;13.20;99.90
25688;DHT22;17407;51.120;3.702;2023-05-19T23:09:00;13.20;99.90
25688;DHT22;17407;51.120;3.702;2023-05-19T23:11:26;13.10;99.90
25688;DHT22;17407;51.120;3.702;2023-05-19T23:13:52;13.10;99.90
25688;DHT22;17407;51.120;3.702;2023-05-19T23:16:17;13.10;99.90
25688;DHT22;17407;51.120;3.702;2023-05-19T23:18:43;13.10;99.90
25688;DHT22;17407;51.120;3.702;2023-05-19T23:21:09;13.10;99.90
25688;DHT22;17407;51.120;3.702;2023-05-19T23:23:34;13.10;99.90
25688;DHT22;17407;51.120;3.702;2023-05-19T23:26:01;13.10;99.90
25688;DHT22;17407;51.120;3.702;2023-05-19T23:28:27;13.10;99.90
25688;DHT22;17407;51.120;3.702;2023-05-19T23:30:53;13.10;99.90
25688;DHT22;17407;51.120;3.702;2023-05-19T23:33:19;13.10;99.90
25688;DHT22;17407;51.120;3.702;2023-05-19T23:35:45;13.00;99.90
25688;DHT22;17407;51.120;3.702;2023-05-19T23:38:11;13.00;99.90
25688;DHT22;17407;51.120;3.702;2023-05-19T23:40:36;13.00;99.90
25688;DHT22;17407;51.120;3.702;2023-05-19T23:43:02;13.00;99.90
25688;DHT22;17407;51.120;3.702;2023-05-19T23:45:28;13.00;99.90
25688;DHT22;17407;51.120;3.702;2023-05-19T23:47:53;13.00;99.90
25688;DHT22;17407;51.120;3.702;2023-05-19T23:50:19;13.00;99.90
25688;DHT22;17407;51.120;3.702;2023-05-19T23:52:45;12.90;99.90
25688;DHT22;17407;51.120;3.702;2023-05-19T23:55:11;12.90;99.90
25688;DHT22;17407;51.120;3.702;2023-05-19T23:57:37;12.90;99.90
